CheckWX is a tool to help pilots better visualize weather data.  It is not intended as a substitute for an official pre-flight weather briefing.

16:16:17 UTC

4M9 METAR
Corning Municipal Airport
Corning, Arkansas, USA
Current

21 mins ago

K4M9 171555Z AUTO 00000KT 10SM CLR 12/06 A3013 RMK AO2 PWINO
Observed
Oct-17 @ 15:55 UTC
Visibility
10 SM
Flight Rules
VFR
Cloud Levels
  • Clear skies
Temperature
12°C / 54°F
Dewpoint
C / 43°F
Humidity
67%
Altimeter
30.13" Hg
Pressure
1020.32 hPa
Previous

41 mins ago

K4M9 171535Z AUTO 00000KT 10SM CLR 11/06 A3013 RMK AO2 PWINO
Observed
Oct-17 @ 15:35 UTC
Visibility
10 SM
Flight Rules
VFR
Cloud Levels
  • Clear skies
Temperature
11°C / 52°F
Dewpoint
C / 43°F
Humidity
72%
Altimeter
30.13" Hg
Pressure
1020.32 hPa
Previous

1 hour ago

K4M9 171515Z AUTO 00000KT 10SM CLR 10/06 A3014 RMK AO2 PWINO
Observed
Oct-17 @ 15:15 UTC
Visibility
10 SM
Flight Rules
VFR
Cloud Levels
  • Clear skies
Temperature
10°C / 50°F
Dewpoint
C / 43°F
Humidity
76%
Altimeter
30.14" Hg
Pressure
1020.62 hPa